Airfield :
LOGIN :

Register | Disclaimer

   EN    FR    IT 

 










Legend :    VFR   Marginal VFR   IFR   Intensive IFR   Very Intensive IFR
Visi :
Ceiling :
>= 8 km
>= 3000ft
5 to 8 km
1000 to 3000 ft
1500m to 5 km
500 to 1000 ft
800 to 1500m
200 to 500 ft
< 800m
< 200 ft
Symbols :   Thunderstorms  Fog  Heavy snow  Heavy precipitations  Wind > 20 kt
SIGMETs :     Misc.  Thunderstorms  Icing  Turbulence  Mountain Waves  Volcanic Ashes







- Airport Elevation : 665 ft
- IATA code : NOC


EIKN - Connaught / Knock- Ireland West

CURRENT METAR :
  • 200900Z 25017KT 9000 BKN004 BKN020 11/11 Q1009 TEMPO 2000

EXPIRED METARs :
  • 200830Z 25014KT 5000 -RADZ OVC003 11/10 Q1009 TEMPO 2000
  • 200800Z 25012KT 220V280 3200 -DZ OVC003 11/10 Q1009 TEMPO 2000
  • 200730Z 24012KT 8000 -RA OVC003 11/10 Q1009 TEMPO 4000
  • 200700Z 23012KT 190V270 5000 -RADZ OVC003 10/10 Q1009 TEMPO 2000
  • 200630Z 24012G22KT 7000 -RADZ OVC004 10/10 Q1009 TEMPO 4000

TAF COR TAF EIKN
Valid from the 20 at 06:00 until the 21 at 06:00 UTC


200508Z 2006/2106 23015KT 6000 -RADZ BKN008
TEMPO 2006/2012 4000 -DZ BKN003
PROB40
TEMPO 2006/2012 2000 RADZ BR
PROB30
TEMPO 2012/2015 BKN015
TEMPO 2015/2018 21005KT
BECMG 2017/2019 0200 -RADZ FG BKN001
No reported NOTAMs for that airfield.



MET'MAP, your aeronautical weather chart ! - Copyright ORBIFLY December 2007 - Disclaimer

ORBIFLY MET'MAP TEAM :

Programming & Development : Alexandra Zaïnal
Concept & Development : Baudouin d'Aumeries
Co-Development & Prog : Marc-Olivier Méhu
Technical & hardware support : Manuel Goepfert

Contact : metmap@orbifly.com




SOURCES & CREDITS :

   NOAA